This is the latest recevied weather packets stored in our database for station/object AJ7DN. If no packets are shown the sender has not sent any weather packets the latest 1 day(s).
| Time | Temp. | Humidity | Pressure | Rain* | Wind** | Luminosity | Snow |
|---|---|---|---|---|---|---|---|
| 1778096332 | 17.22° C | 75% | 1025.7 hPa | 0 mm | - | 198 W/m² | - |
| 1778094815 | 17.22° C | 76% | 1025.6 hPa | 0 mm | - | 191 W/m² | - |
| 1778092694 | 16.67° C | 76% | 1025.3 hPa | 0 mm | - | 415 W/m² | - |
| 1778091481 | 16.67° C | 77% | 1025.6 hPa | 0 mm | - | 208 W/m² | - |
| 1778091179 | 16.11° C | 78% | 1025.3 hPa | 0 mm | - | 178 W/m² | - |
| 1778090876 | 16.67° C | 78% | 1025.6 hPa | 0 mm | - | 158 W/m² | - |
| 1778090268 | 16.67° C | 78% | 1025.2 hPa | 0 mm | - | 179 W/m² | - |
| 1778089965 | 16.11° C | 78% | 1025.6 hPa | 0 mm | - | 209 W/m² | - |
| 1778086936 | 15° C | 81% | 1025.1 hPa | 0 mm | - | 101 W/m² | - |
| 1778086331 | 15° C | 80% | 1025.3 hPa | 0 mm | - | 119 W/m² | - |
| 1778084208 | 14.44° C | 83% | 1024.9 hPa | 0 mm | - | 106 W/m² | - |
| 1778083602 | 15° C | 81% | 1025 hPa | 0 mm | - | 113 W/m² | - |
| 1778083299 | 15° C | 82% | 1024.9 hPa | 0 mm | - | 181 W/m² | - |
| 1778080042 | 13.33° C | 87% | 1025.3 hPa | 0 mm | - | 29 W/m² | - |
| 1778079133 | 13.33° C | 87% | 1025.3 hPa | 0 mm | - | 20 W/m² | - |
| 1778077621 | 13.33° C | 87% | 1024.5 hPa | 0 mm | - | 34 W/m² | - |
| 1778077318 | 13.33° C | 87% | 1024.3 hPa | 0 mm | - | 35 W/m² | - |
| 1778077016 | 13.33° C | 87% | 1024.4 hPa | 0 mm | - | 36 W/m² | - |
| 1778076714 | 13.33° C | 87% | 1024.1 hPa | 0 mm | - | 31 W/m² | - |
| 1778075198 | 13.33° C | 89% | 1024.1 hPa | 0 mm | - | 15 W/m² | - |
| 1778074288 | 13.33° C | 88% | 1023.9 hPa | 0 mm | - | 12 W/m² | - |
| 1778073380 | 13.33° C | 88% | 1023.8 hPa | 0 mm | - | 5 W/m² | - |
| 1778072773 | 13.33° C | 88% | 1023.7 hPa | 0 mm | - | 1 W/m² | - |
| 1778071866 | 13.33° C | 88% | 1023.8 hPa | 0 mm | - | 0 W/m² | - |
| 1778071261 | 13.33° C | 88% | 1023.7 hPa | 0 mm | - | 0 W/m² | - |
* Rain latest hour (hover to see other rain measurements)
** Current wind speed in m/s (hover to see current wind gust speed)